KHRO/HRO METAR and TAF weather

Enter ICAO airport designator
Station Type Date Time Source
KHRO METAR 2019/06/16 04:53 UTC NOAA

KHRO 160453Z AUTO 23004KT 9SM FEW043 21/20 A2988 RMK AO2 SLP107 T02110200


Station Type Date Time Source
KHRO Decoded METAR 2019/06/16 04:53 UTC NOAA

HARRISON BOONE COUNTY AIRPORT , AR, United States (KHRO) 36-16N 093-09W 417M
Jun 16, 2019 - 12:53 AM EDT / 2019.06.16 0453 UTC
Wind: from the SW (230 degrees) at 5 MPH (4 KT):0
Visibility: 9 mile(s):0
Sky conditions: mostly clear
Temperature: 70.0 F (21.1 C)
Dew Point: 68.0 F (20.0 C)
Relative Humidity: 93%
Pressure (altimeter): 29.88 in. Hg (1011 hPa)
ob: KHRO 160453Z AUTO 23004KT 9SM FEW043 21/20 A2988 RMK AO2 SLP107 T02110200
cycle: 5

Station Type Date Time Source
KHRO TAF 2019/06/15 18:33 UTC NOAA

TAF KHRO 151730Z 1518/1618 17010KT P6SM VCSH SCT080 BKN250
FM151930 20013KT P6SM BKN250
FM160000 19008KT P6SM OVC250
FM161100 18008KT P6SM VCSH SCT050 BKN250
FM161500 18011KT P6SM BKN250

Example: see airport list